Time;durP1;ratioP1;P1;durP2;ratioP2;P2;SDS_P1;SDS_P2;PMS_P1;PMS_P2;Temp;Humidity;BMP_temperature;BMP_pressure;BME280_temperature;BME280_humidity;BME280_pressure;Samples;Min_cycle;Max_cycle;Signal;HPM_P1;HPM_P2
2022/02/23 00:00:11;;;;;;;89.72;40.72;;;8.20;99.90;;;;;;4867841;29;20210;-85
2022/02/23 00:03:24;;;;;;;;;;;;;;;;;;;;;
2022/02/23 00:06:49;;;;;;;;;;;;;;;;;;;;;
2022/02/23 00:14:12;;;;;;;;;;;;;;;;;;;;;
2022/02/23 00:36:13;;;;;;;91.70;55.53;;;8.00;99.90;;;;;;4922547;23;20665;-84
2022/02/23 00:39:45;;;;;;;;;;;;;;;;;;;;;
2022/02/23 01:08:09;;;;;;;;;;;;;;;;;;;;;
2022/02/23 01:11:29;;;;;;;82.22;32.70;;;7.50;99.90;;;;;;4790643;29;20186;-85
2022/02/23 01:18:25;;;;;;;73.90;19.13;;;7.50;99.90;;;;;;4756611;30;20243;-85
2022/02/23 01:25:09;;;;;;;;;;;;;;;;;;;;;
2022/02/23 01:40:07;;;;;;;;;;;;;;;;;;;;;
2022/02/23 01:49:51;;;;;;;75.32;25.23;;;7.10;99.90;;;;;;4750251;30;20655;-85
2022/02/23 01:53:08;;;;;;;72.80;17.40;;;7.10;99.90;;;;;;4746195;29;20546;-85
2022/02/23 01:56:41;;;;;;;71.97;18.67;;;7.10;99.90;;;;;;4792168;29;20652;-84
2022/02/23 02:00:36;;;;;;;;;;;;;;;;;;;;;
2022/02/23 02:04:00;;;;;;;;;;;;;;;;;;;;;
2022/02/23 02:25:29;;;;;;;73.68;22.95;;;6.80;99.90;;;;;;4843785;29;20219;-85
2022/02/23 02:28:43;;;;;;;77.15;29.50;;;6.80;99.90;;;;;;4828847;29;20198;-85
2022/02/23 03:14:03;;;;;;;;;;;;;;;;;;;;;
2022/02/23 03:39:59;;;;;;;;;;;;;;;;;;;;;
2022/02/23 03:46:35;;;;;;;;;;;;;;;;;;;;;
2022/02/23 03:58:04;;;;;;;;;;;;;;;;;;;;;
2022/02/23 04:21:21;;;;;;;98.95;45.75;;;5.90;99.90;;;;;;4839030;29;20301;-87
2022/02/23 04:24:20;;;;;;;;;;;;;;;;;;;;;
2022/02/23 04:37:42;;;;;;;94.35;52.78;;;5.60;99.90;;;;;;4809035;29;20243;-87
2022/02/23 04:45:00;;;;;;;;;;;;;;;;;;;;;
2022/02/23 04:55:40;;;;;;;90.70;50.63;;;5.40;99.90;;;;;;4808214;29;20686;-86
2022/02/23 05:02:12;;;;;;;87.20;46.67;;;5.20;99.90;;;;;;4928391;23;20235;-82
2022/02/23 05:07:55;;;;;;;93.32;58.05;;;5.10;99.90;;;;;;4906246;23;20314;-82
2022/02/23 05:10:57;;;;;;;86.03;47.25;;;5.10;99.90;;;;;;4882945;29;20183;-82
2022/02/23 05:14:02;;;;;;;82.05;46.25;;;5.10;99.90;;;;;;4882876;29;20178;-82
2022/02/23 05:16:54;;;;;;;85.40;46.10;;;5.10;99.90;;;;;;4864030;29;20209;-82
2022/02/23 05:20:10;;;;;;;98.07;66.57;;;5.00;99.90;;;;;;4860606;29;20215;-81
2022/02/23 05:22:38;;;;;;;92.45;56.67;;;4.90;99.90;;;;;;4859215;29;20187;-81
2022/02/23 05:25:05;;;;;;;98.03;69.80;;;4.90;99.90;;;;;;4865588;29;20163;-81
2022/02/23 05:27:31;;;;;;;93.20;65.55;;;4.80;99.90;;;;;;4866284;29;20194;-81
2022/02/23 05:29:56;;;;;;;89.13;68.00;;;4.80;99.90;;;;;;4866265;29;20163;-81
2022/02/23 05:32:22;;;;;;;92.47;73.83;;;4.70;99.90;;;;;;4866546;29;20196;-81
2022/02/23 05:34:47;;;;;;;102.00;91.00;;;4.70;99.90;;;;;;4865858;29;20632;-82
2022/02/23 05:37:13;;;;;;;93.00;79.00;;;4.60;99.90;;;;;;4865539;29;20216;-81
2022/02/23 05:39:39;;;;;;;93.20;69.60;;;4.60;99.90;;;;;;4865794;29;20242;-81
2022/02/23 05:42:05;;;;;;;100.13;79.50;;;4.60;99.90;;;;;;4865640;29;20167;-83
2022/02/23 05:44:31;;;;;;;96.45;74.28;;;4.60;99.90;;;;;;4864670;29;20171;-81
2022/02/23 05:46:57;;;;;;;92.78;70.95;;;4.60;99.90;;;;;;4865437;29;20195;-84
2022/02/23 05:49:22;;;;;;;89.33;70.67;;;4.50;99.90;;;;;;4865608;29;20171;-81
2022/02/23 05:51:48;;;;;;;89.73;62.47;;;4.40;99.90;;;;;;4866905;29;20238;-83
2022/02/23 05:54:15;;;;;;;87.88;59.22;;;4.30;99.90;;;;;;4866215;29;20517;-84
2022/02/23 05:56:42;;;;;;;90.38;77.03;;;4.30;99.90;;;;;;4866443;29;20198;-83
2022/02/23 05:59:08;;;;;;;90.32;69.10;;;4.20;99.90;;;;;;4865858;29;20278;-83
2022/02/23 06:01:35;;;;;;;88.45;60.33;;;4.20;99.90;;;;;;4865617;29;20174;-83
2022/02/23 06:04:00;;;;;;;89.55;64.57;;;4.20;99.90;;;;;;4865735;29;20639;-83
2022/02/23 06:06:26;;;;;;;98.70;81.90;;;4.20;99.90;;;;;;4865739;29;20206;-83
2022/02/23 06:08:52;;;;;;;85.70;64.13;;;4.20;99.90;;;;;;4865958;29;20194;-83
2022/02/23 06:11:18;;;;;;;92.43;61.20;;;4.20;99.90;;;;;;4865855;29;20207;-83
2022/02/23 06:13:50;;;;;;;94.20;65.87;;;4.20;99.90;;;;;;4866258;29;20231;-82
2022/02/23 06:16:17;;;;;;;95.43;62.45;;;4.20;99.90;;;;;;4865378;29;20187;-83
2022/02/23 06:18:43;;;;;;;87.15;52.58;;;4.20;99.90;;;;;;4863922;29;20744;-83
2022/02/23 06:21:11;;;;;;;88.93;59.43;;;4.20;99.90;;;;;;4865640;29;20175;-83
2022/02/23 06:23:37;;;;;;;91.07;53.55;;;4.20;99.90;;;;;;4865571;29;20171;-83
2022/02/23 06:26:05;;;;;;;85.90;48.87;;;4.30;99.90;;;;;;4865414;29;20690;-83
2022/02/23 06:28:31;;;;;;;90.07;43.88;;;4.30;99.90;;;;;;4865618;29;20211;-83
2022/02/23 06:30:57;;;;;;;84.13;43.35;;;4.40;99.90;;;;;;4865950;29;20537;-83
2022/02/23 06:33:25;;;;;;;78.53;37.33;;;4.40;99.90;;;;;;4865637;29;20190;-83
2022/02/23 06:35:51;;;;;;;89.40;50.58;;;4.50;99.90;;;;;;4866089;29;20198;-84
2022/02/23 06:38:17;;;;;;;87.38;42.35;;;4.40;99.90;;;;;;4865793;29;20195;-83
2022/02/23 06:40:44;;;;;;;83.82;43.65;;;4.50;99.90;;;;;;4865704;29;20163;-84
2022/02/23 06:43:13;;;;;;;84.30;39.65;;;4.60;99.90;;;;;;4864306;29;20167;-83
2022/02/23 06:45:46;;;;;;;88.75;48.08;;;4.60;99.90;;;;;;4865230;29;20191;-83
2022/02/23 06:48:12;;;;;;;82.43;34.63;;;4.60;99.90;;;;;;4865410;29;20162;-83
2022/02/23 06:50:39;;;;;;;81.90;42.17;;;4.60;99.90;;;;;;4864899;29;20644;-83
2022/02/23 06:53:06;;;;;;;81.15;43.20;;;4.60;99.90;;;;;;4865629;29;20179;-83
2022/02/23 06:55:31;;;;;;;83.05;39.30;;;4.60;99.90;;;;;;4865265;29;20190;-83
2022/02/23 06:57:57;;;;;;;87.50;42.63;;;4.60;99.90;;;;;;4864807;29;20674;-83
2022/02/23 07:00:25;;;;;;;82.80;36.27;;;4.60;99.90;;;;;;4865443;29;20769;-83
2022/02/23 07:02:52;;;;;;;82.22;39.17;;;4.60;99.90;;;;;;4865436;29;20178;-83
2022/02/23 07:05:19;;;;;;;85.68;40.25;;;4.60;99.90;;;;;;4863747;29;20191;-83
2022/02/23 07:07:45;;;;;;;87.30;44.38;;;4.60;99.90;;;;;;4865067;29;20198;-83
2022/02/23 07:10:23;;;;;;;81.78;42.00;;;4.60;99.90;;;;;;4864932;29;20171;-83
2022/02/23 07:12:49;;;;;;;81.72;39.75;;;4.60;99.90;;;;;;4863596;29;20164;-83
2022/02/23 07:15:16;;;;;;;83.40;47.55;;;4.70;99.90;;;;;;4864534;29;20215;-83
2022/02/23 07:17:42;;;;;;;85.03;46.30;;;4.70;99.90;;;;;;4865207;29;20251;-83
2022/02/23 07:20:09;;;;;;;84.67;47.20;;;4.80;99.90;;;;;;4865726;29;20196;-83
2022/02/23 07:22:35;;;;;;;86.00;53.40;;;4.90;99.90;;;;;;4865069;29;20191;-83
2022/02/23 07:25:01;;;;;;;84.03;52.47;;;4.90;99.90;;;;;;4864023;29;20198;-83
2022/02/23 07:27:27;;;;;;;84.67;51.67;;;4.90;99.90;;;;;;4865215;29;20171;-83
2022/02/23 07:29:53;;;;;;;93.50;49.07;;;4.90;99.90;;;;;;4868786;29;20168;-83
2022/02/23 07:32:26;;;;;;;94.57;54.87;;;4.90;99.90;;;;;;4868876;29;20503;-83
2022/02/23 07:34:52;;;;;;;104.30;56.13;;;5.00;99.90;;;;;;4868202;29;20399;-83
2022/02/23 07:37:18;;;;;;;101.70;49.28;;;5.00;99.90;;;;;;4869570;29;20248;-83
2022/02/23 07:39:44;;;;;;;95.07;54.47;;;5.00;99.90;;;;;;4868563;29;20230;-83
2022/02/23 07:42:10;;;;;;;100.65;61.78;;;5.00;99.90;;;;;;4868949;29;20508;-83
2022/02/23 07:44:36;;;;;;;94.13;55.53;;;5.10;99.90;;;;;;4867931;29;20576;-83
2022/02/23 07:47:02;;;;;;;100.23;45.00;;;5.00;99.90;;;;;;4868003;29;20427;-83
2022/02/23 07:49:28;;;;;;;96.03;55.42;;;5.10;99.90;;;;;;4867427;29;20179;-84
2022/02/23 07:51:54;;;;;;;92.13;59.92;;;5.10;99.90;;;;;;4868372;29;20175;-83
2022/02/23 07:54:20;;;;;;;91.40;56.80;;;5.20;99.90;;;;;;4868373;29;20175;-83
2022/02/23 07:56:46;;;;;;;89.43;47.40;;;5.20;99.90;;;;;;4868085;29;20195;-83
2022/02/23 07:59:12;;;;;;;92.90;57.80;;;5.20;99.90;;;;;;4868107;29;20459;-84
2022/02/23 08:01:38;;;;;;;96.33;50.07;;;5.30;99.90;;;;;;4867110;29;20176;-83
2022/02/23 08:04:05;;;;;;;84.88;39.53;;;5.40;99.90;;;;;;4868178;29;20177;-84
2022/02/23 08:06:32;;;;;;;90.70;44.03;;;5.40;99.90;;;;;;4865727;29;20195;-83
2022/02/23 08:08:59;;;;;;;89.63;39.88;;;5.50;99.90;;;;;;4867321;29;20243;-83
2022/02/23 08:11:26;;;;;;;84.75;46.63;;;5.50;99.90;;;;;;4866170;29;20187;-83
2022/02/23 08:13:59;;;;;;;82.93;40.05;;;5.50;99.90;;;;;;4866359;29;20186;-83
2022/02/23 08:21:57;;;;;;;81.70;31.88;;;5.80;99.90;;;;;;4867617;29;20186;-83
2022/02/23 08:24:23;;;;;;;82.10;35.22;;;5.90;99.90;;;;;;4867615;29;20168;-83
2022/02/23 08:26:49;;;;;;;86.15;39.53;;;6.00;99.90;;;;;;4867351;29;20623;-84
2022/02/23 08:29:15;;;;;;;83.43;33.85;;;6.00;99.90;;;;;;4865583;29;20175;-82
2022/02/23 08:31:41;;;;;;;83.93;37.67;;;6.10;99.90;;;;;;4865729;29;20648;-83
2022/02/23 08:34:07;;;;;;;85.83;32.40;;;6.20;99.90;;;;;;4866667;29;20503;-83
2022/02/23 08:36:33;;;;;;;81.73;34.80;;;6.30;99.90;;;;;;4865026;29;20444;-83
2022/02/23 08:38:58;;;;;;;91.10;45.10;;;6.30;99.90;;;;;;4866437;29;20281;-83
2022/02/23 08:41:24;;;;;;;104.27;44.60;;;6.30;99.90;;;;;;4865213;29;20424;-84
2022/02/23 08:43:50;;;;;;;85.97;43.20;;;6.30;99.90;;;;;;4866839;29;20178;-83
2022/02/23 08:46:16;;;;;;;88.10;40.08;;;6.40;99.90;;;;;;4866620;29;20233;-83
2022/02/23 08:48:42;;;;;;;83.65;35.88;;;6.40;99.90;;;;;;4866343;29;20667;-83
2022/02/23 08:51:08;;;;;;;88.40;38.73;;;6.50;99.90;;;;;;4865144;29;20179;-83
2022/02/23 08:53:34;;;;;;;99.07;54.77;;;6.50;99.90;;;;;;4866536;29;20607;-83
2022/02/23 08:55:59;;;;;;;93.37;56.07;;;6.60;99.90;;;;;;4866176;29;20226;-83
2022/02/23 08:58:25;;;;;;;95.40;48.97;;;6.60;99.90;;;;;;4866492;29;20671;-83
2022/02/23 09:00:51;;;;;;;103.53;48.70;;;6.70;99.90;;;;;;4866707;29;20311;-83
2022/02/23 09:03:21;;;;;;;92.40;48.55;;;6.70;99.90;;;;;;4867409;29;20164;-86
2022/02/23 09:05:47;;;;;;;92.40;43.67;;;6.80;99.90;;;;;;4866146;29;20190;-85
2022/02/23 09:08:13;;;;;;;93.82;51.72;;;6.80;99.90;;;;;;4866133;29;20183;-84
2022/02/23 09:10:40;;;;;;;88.13;47.20;;;6.90;99.90;;;;;;4866403;29;20202;-84
2022/02/23 09:13:07;;;;;;;93.45;65.80;;;6.90;99.90;;;;;;4866811;29;20214;-84
2022/02/23 09:15:34;;;;;;;97.15;79.50;;;7.00;99.90;;;;;;4866557;29;20544;-84
2022/02/23 09:18:01;;;;;;;104.95;89.03;;;7.10;99.90;;;;;;4866031;29;20219;-83
2022/02/23 09:20:27;;;;;;;104.78;82.72;;;7.20;99.90;;;;;;4866316;29;20191;-83
2022/02/23 09:22:54;;;;;;;99.20;63.45;;;7.20;99.90;;;;;;4866722;29;20160;-83
2022/02/23 09:25:21;;;;;;;82.63;44.47;;;7.20;99.90;;;;;;4865565;29;20312;-84
2022/02/23 09:27:46;;;;;;;100.47;67.07;;;7.20;99.90;;;;;;4866189;29;20179;-84
2022/02/23 09:30:14;;;;;;;97.50;76.63;;;7.30;99.90;;;;;;4866395;29;20299;-83
2022/02/23 09:32:42;;;;;;;99.90;84.20;;;7.40;99.90;;;;;;4866365;29;20179;-83
2022/02/23 09:35:20;;;;;;;111.85;99.63;;;7.40;99.90;;;;;;4865927;29;20195;-83
2022/02/23 09:37:47;;;;;;;97.10;66.95;;;7.50;99.90;;;;;;4866535;29;20148;-83
2022/02/23 09:40:16;;;;;;;88.80;55.55;;;7.50;99.90;;;;;;4866605;29;20553;-84
2022/02/23 09:42:56;;;;;;;81.32;41.67;;;7.60;99.90;;;;;;4864447;29;20171;-83
2022/02/23 09:45:26;;;;;;;89.43;36.55;;;7.80;99.90;;;;;;4864939;29;20274;-83
2022/02/23 09:47:52;;;;;;;85.60;37.60;;;7.90;99.90;;;;;;4865184;29;20168;-83
2022/02/23 09:50:22;;;;;;;87.47;42.60;;;7.90;99.90;;;;;;4865101;29;20235;-83
2022/02/23 09:52:52;;;;;;;81.78;31.80;;;8.00;99.90;;;;;;4864512;29;20247;-83
2022/02/23 09:55:21;;;;;;;80.18;24.58;;;8.10;99.90;;;;;;4866147;29;20191;-84
2022/02/23 09:57:47;;;;;;;82.75;25.13;;;8.20;99.90;;;;;;4865524;29;20231;-84
2022/02/23 10:00:13;;;;;;;83.78;29.60;;;8.30;99.90;;;;;;4865588;29;20167;-84
2022/02/23 10:02:39;;;;;;;78.30;26.30;;;8.40;99.90;;;;;;4866184;29;20163;-84
2022/02/23 10:08:18;;;;;;;77.22;13.73;;;8.60;99.90;;;;;;3268016;27;20542;-81
2022/02/23 10:14:19;;;;;;;74.13;12.85;;;9.00;99.90;;;;;;4883671;29;20177;-83
2022/02/23 10:17:43;;;;;;;78.75;15.73;;;9.10;99.90;;;;;;4828809;29;20348;-83
2022/02/23 10:20:36;;;;;;;78.38;9.85;;;9.40;99.90;;;;;;4843739;29;20165;-81
2022/02/23 10:26:18;;;;;;;76.13;8.10;;;9.60;99.90;;;;;;4843453;29;20195;-83
2022/02/23 10:28:57;;;;;;;78.07;9.18;;;9.70;99.90;;;;;;4880984;29;20592;-83
2022/02/23 10:32:23;;;;;;;71.32;7.05;;;9.80;99.40;;;;;;4883013;29;20284;-83
2022/02/23 10:35:27;;;;;;;71.40;6.85;;;9.90;99.90;;;;;;4883096;29;20246;-83
2022/02/23 10:37:58;;;;;;;73.22;17.00;;;10.20;85.90;;;;;;4884054;29;20147;-84
2022/02/23 10:40:25;;;;;;;73.95;13.02;;;10.30;87.00;;;;;;4881969;29;20250;-83
2022/02/23 10:42:53;;;;;;;69.25;11.85;;;10.50;73.50;;;;;;4883082;29;20159;-82
2022/02/23 10:45:22;;;;;;;72.40;13.40;;;10.60;82.90;;;;;;4883276;29;20186;-83
2022/02/23 10:47:51;;;;;;;72.00;14.00;;;10.70;63.50;;;;;;4884395;29;20167;-84
2022/02/23 10:50:39;;;;;;;73.53;21.30;;;10.70;55.60;;;;;;4884891;29;20167;-85
2022/02/23 10:53:10;;;;;;;69.90;17.88;;;10.70;40.20;;;;;;4886820;29;20226;-87
2022/02/23 10:55:55;;;;;;;73.07;9.38;;;10.90;48.60;;;;;;4886072;29;20198;-86
2022/02/23 10:58:27;;;;;;;75.60;16.15;;;10.90;51.60;;;;;;4883908;29;20194;-87
2022/02/23 11:01:03;;;;;;;68.18;10.05;;;11.00;56.70;;;;;;4948743;23;20624;-87
2022/02/23 11:03:30;;;;;;;72.07;20.10;;;11.10;56.10;;;;;;4883689;29;20154;-87
2022/02/23 11:05:56;;;;;;;75.95;23.02;;;11.10;43.70;;;;;;4883577;29;20194;-86
2022/02/23 11:08:26;;;;;;;72.10;17.70;;;11.20;48.20;;;;;;4882385;29;20562;-87
2022/02/23 11:10:53;;;;;;;73.15;21.58;;;11.20;39.40;;;;;;4882561;29;20257;-86
2022/02/23 11:13:23;;;;;;;69.47;10.15;;;11.20;49.10;;;;;;4883568;29;20163;-87
2022/02/23 11:15:52;;;;;;;74.60;17.00;;;11.30;53.90;;;;;;4884035;29;20281;-87
2022/02/23 11:18:21;;;;;;;71.80;11.32;;;11.30;56.90;;;;;;4882142;29;20170;-87
2022/02/23 11:20:49;;;;;;;69.53;13.18;;;11.50;51.70;;;;;;4883284;29;20230;-87
2022/02/23 11:23:22;;;;;;;73.20;20.20;;;11.50;51.90;;;;;;4883235;29;20686;-87
2022/02/23 11:25:54;;;;;;;75.32;19.25;;;11.60;45.10;;;;;;4882937;29;20191;-87
2022/02/23 11:28:29;;;;;;;76.32;15.13;;;11.60;52.20;;;;;;4882837;29;20186;-88
2022/02/23 11:31:01;;;;;;;86.10;17.60;;;11.80;49.80;;;;;;4881865;29;20166;-87
2022/02/23 11:33:48;;;;;;;72.95;16.73;;;12.00;52.40;;;;;;4883115;29;20162;-88
2022/02/23 11:36:21;;;;;;;72.18;16.58;;;12.00;47.20;;;;;;4882705;29;20548;-87
2022/02/23 11:38:48;;;;;;;70.32;12.30;;;12.10;44.60;;;;;;4882629;29;20179;-88
2022/02/23 11:41:32;;;;;;;68.78;10.20;;;12.20;40.40;;;;;;4882854;29;20182;-87
2022/02/23 11:44:00;;;;;;;70.80;7.80;;;12.00;31.50;;;;;;4884903;29;20162;-88
2022/02/23 11:46:26;;;;;;;75.50;6.65;;;12.00;30.30;;;;;;4882638;29;20234;-89
2022/02/23 11:49:11;;;;;;;74.32;17.90;;;12.00;38.00;;;;;;4882959;29;20195;-88
2022/02/23 11:54:53;;;;;;;79.13;24.73;;;12.00;43.70;;;;;;4882138;29;20888;-87
2022/02/23 11:57:58;;;;;;;68.45;5.05;;;12.20;35.20;;;;;;4882125;29;20238;-87
2022/02/23 12:00:48;;;;;;;66.68;5.18;;;12.40;31.70;;;;;;4880938;29;20250;-88
2022/02/23 12:03:28;;;;;;;70.10;5.78;;;12.30;28.10;;;;;;4882423;29;20253;-87
2022/02/23 12:06:06;;;;;;;64.63;6.13;;;12.50;21.20;;;;;;4881156;29;20582;-87
2022/02/23 12:08:32;;;;;;;70.90;7.28;;;12.60;20.80;;;;;;4882285;29;20217;-87
2022/02/23 12:11:17;;;;;;;68.40;6.83;;;12.70;14.30;;;;;;4881246;29;20647;-87
2022/02/23 12:13:55;;;;;;;69.18;13.05;;;12.70;20.50;;;;;;4861995;29;20182;-87
2022/02/23 12:16:51;;;;;;;70.03;11.15;;;12.80;15.70;;;;;;4880787;29;20198;-87
2022/02/23 12:19:41;;;;;;;73.82;8.98;;;12.80;7.40;;;;;;4881022;29;20170;-88
2022/02/23 12:22:59;;;;;;;68.88;8.75;;;12.80;16.00;;;;;;4882033;29;20159;-88
2022/02/23 12:25:50;;;;;;;65.78;5.47;;;13.10;17.70;;;;;;4882115;29;20547;-88
2022/02/23 12:28:34;;;;;;;70.45;5.95;;;13.00;3.30;;;;;;4881800;29;20869;-87
2022/02/23 12:31:14;;;;;;;67.15;5.80;;;12.80;3.80;;;;;;4882327;29;20681;-87
2022/02/23 12:33:44;;;;;;;73.65;26.45;;;12.50;10.80;;;;;;4881556;29;20257;-88
2022/02/23 12:36:13;;;;;;;67.82;13.65;;;12.20;10.10;;;;;;4881569;29;20187;-88
2022/02/23 12:38:47;;;;;;;73.45;20.13;;;12.10;9.20;;;;;;4881681;29;20170;-87
2022/02/23 12:41:20;;;;;;;68.90;19.10;;;12.20;6.30;;;;;;4882428;29;20703;-87
2022/02/23 12:43:57;;;;;;;74.05;23.05;;;12.30;7.10;;;;;;4881892;29;20175;-87
2022/02/23 12:46:23;;;;;;;71.43;20.92;;;12.40;1.00;;;;;;4881671;29;20194;-88
2022/02/23 12:49:15;;;;;;;78.30;35.37;;;12.40;1.00;;;;;;4881400;29;20214;-87
2022/02/23 12:51:44;;;;;;;75.10;21.55;;;12.50;1.00;;;;;;4881711;29;20869;-88
2022/02/23 12:54:15;;;;;;;77.10;32.70;;;12.60;1.00;;;;;;4880053;29;20256;-87
2022/02/23 12:56:54;;;;;;;76.22;31.70;;;12.60;1.00;;;;;;4880451;29;20197;-88
2022/02/23 12:59:23;;;;;;;76.05;35.20;;;12.70;1.00;;;;;;4881517;29;20163;-88
2022/02/23 13:01:53;;;;;;;69.40;16.10;;;12.70;1.00;;;;;;4879948;29;20214;-88
2022/02/23 13:04:22;;;;;;;70.82;14.82;;;12.60;1.00;;;;;;4879855;29;20202;-88
2022/02/23 13:06:55;;;;;;;74.45;16.95;;;12.60;1.00;;;;;;4881183;29;20186;-88
2022/02/23 13:09:24;;;;;;;71.05;20.98;;;12.60;1.00;;;;;;4881287;29;20204;-87
2022/02/23 13:11:53;;;;;;;74.88;30.65;;;12.70;1.00;;;;;;4881697;29;20173;-88
2022/02/23 13:14:24;;;;;;;76.18;38.17;;;12.60;1.00;;;;;;4879624;29;20182;-88
2022/02/23 13:16:58;;;;;;;80.97;38.13;;;12.60;1.00;;;;;;4880960;29;20190;-88
2022/02/23 13:19:33;;;;;;;77.03;39.15;;;12.60;1.00;;;;;;4880178;29;20529;-88
2022/02/23 13:22:05;;;;;;;76.13;36.97;;;12.60;1.00;;;;;;4880881;29;20619;-88
2022/02/23 13:24:48;;;;;;;77.82;41.10;;;12.60;1.00;;;;;;4880484;29;20261;-88
2022/02/23 13:27:21;;;;;;;74.65;24.63;;;12.50;2.50;;;;;;4880743;29;20194;-88
2022/02/23 13:29:51;;;;;;;81.47;40.47;;;12.50;5.20;;;;;;4879360;29;20544;-88
2022/02/23 13:32:21;;;;;;;72.10;25.58;;;12.40;1.00;;;;;;4880475;29;20198;-88
2022/02/23 13:34:46;;;;;;;78.13;38.58;;;12.20;1.00;;;;;;4880611;29;20175;-88
2022/02/23 13:37:26;;;;;;;80.90;41.47;;;12.20;4.00;;;;;;4880849;29;20190;-88
2022/02/23 13:40:04;;;;;;;74.78;34.63;;;12.20;1.00;;;;;;4880265;29;20181;-88
2022/02/23 13:42:35;;;;;;;79.45;35.33;;;12.20;5.10;;;;;;4880600;29;20696;-88
2022/02/23 13:45:09;;;;;;;76.22;30.25;;;12.10;9.10;;;;;;4889272;23;20179;-88
2022/02/23 13:47:39;;;;;;;71.97;15.00;;;12.00;1.90;;;;;;4860826;29;20500;-88
2022/02/23 13:53:38;;;;;;;76.88;27.23;;;12.00;16.90;;;;;;4852269;29;20207;-88
2022/02/23 13:56:11;;;;;;;77.53;23.52;;;12.10;9.30;;;;;;4861894;29;20187;-88
2022/02/23 13:59:10;;;;;;;74.00;23.95;;;12.00;12.20;;;;;;4861842;29;20159;-88
2022/02/23 14:01:36;;;;;;;79.90;31.65;;;12.10;10.20;;;;;;4872375;29;20155;-85
2022/02/23 14:04:08;;;;;;;82.17;37.23;;;12.10;1.00;;;;;;4861900;29;20178;-85
2022/02/23 14:06:40;;;;;;;83.32;45.67;;;12.00;1.00;;;;;;4876150;29;20523;-86
2022/02/23 14:09:08;;;;;;;72.97;30.52;;;12.00;1.00;;;;;;4861722;29;20199;-87
2022/02/23 14:11:45;;;;;;;76.13;29.20;;;12.00;1.00;;;;;;4861642;29;20632;-88
2022/02/23 14:14:20;;;;;;;76.65;35.15;;;12.00;3.50;;;;;;4860221;29;20183;-88
2022/02/23 14:16:52;;;;;;;83.20;46.38;;;12.10;3.90;;;;;;4861512;29;20182;-89
2022/02/23 14:19:33;;;;;;;75.03;31.35;;;12.20;1.00;;;;;;4861487;29;20151;-88
2022/02/23 14:22:02;;;;;;;80.55;48.97;;;12.20;1.00;;;;;;4861501;29;20163;-88
2022/02/23 14:24:32;;;;;;;79.90;48.42;;;12.10;1.00;;;;;;4861588;29;20223;-88
2022/02/23 14:27:19;;;;;;;73.88;28.75;;;12.10;1.00;;;;;;4861079;29;20197;-88
2022/02/23 14:29:50;;;;;;;81.60;49.05;;;12.00;1.00;;;;;;4861238;29;20207;-88
2022/02/23 14:32:33;;;;;;;77.80;43.65;;;11.80;1.00;;;;;;4861254;29;20572;-88
2022/02/23 14:35:11;;;;;;;76.80;40.70;;;11.80;1.00;;;;;;4860164;29;20171;-88
2022/02/23 14:37:47;;;;;;;80.05;43.80;;;11.80;1.00;;;;;;4861205;29;20160;-88
2022/02/23 14:40:29;;;;;;;81.97;51.00;;;11.70;1.00;;;;;;4861345;29;20155;-88
2022/02/23 14:42:57;;;;;;;79.18;37.28;;;11.70;1.00;;;;;;4860642;29;20198;-88
2022/02/23 14:45:28;;;;;;;79.90;48.22;;;11.60;1.00;;;;;;4860989;29;20202;-88
2022/02/23 14:47:56;;;;;;;70.10;18.90;;;11.70;1.00;;;;;;4861340;29;20155;-88
2022/02/23 14:50:22;;;;;;;66.38;8.30;;;11.70;1.00;;;;;;4861296;29;20202;-88
2022/02/23 14:52:51;;;;;;;69.50;8.40;;;11.70;1.60;;;;;;4861055;29;20167;-88
2022/02/23 14:55:18;;;;;;;81.90;42.60;;;11.80;1.00;;;;;;4860886;29;20849;-88
2022/02/23 14:57:46;;;;;;;81.47;49.88;;;11.90;1.70;;;;;;4860937;29;20544;-88
2022/02/23 15:00:14;;;;;;;79.47;43.58;;;11.90;1.00;;;;;;4875270;29;20183;-88
2022/02/23 15:02:43;;;;;;;79.57;45.97;;;11.90;1.00;;;;;;4860836;29;20178;-88
2022/02/23 15:05:10;;;;;;;81.60;54.72;;;11.90;1.00;;;;;;4860790;29;20606;-89
2022/02/23 15:07:40;;;;;;;70.47;22.60;;;12.00;1.00;;;;;;4860838;29;20172;-88
2022/02/23 15:10:08;;;;;;;73.45;24.67;;;12.00;1.00;;;;;;4859544;29;20203;-88
2022/02/23 15:12:34;;;;;;;73.65;18.88;;;12.00;1.00;;;;;;4861312;29;20509;-88
2022/02/23 15:15:00;;;;;;;77.53;20.97;;;12.00;1.00;;;;;;4860897;29;20171;-88
2022/02/23 15:17:28;;;;;;;78.30;32.07;;;12.00;1.00;;;;;;4859573;29;20178;-87
2022/02/23 15:19:54;;;;;;;85.65;52.67;;;11.80;1.00;;;;;;4860828;29;20404;-87
2022/02/23 15:22:20;;;;;;;82.10;52.80;;;11.60;1.00;;;;;;4861160;29;20259;-88
2022/02/23 15:24:46;;;;;;;81.53;46.80;;;11.70;1.00;;;;;;4860904;29;20442;-88
2022/02/23 15:27:14;;;;;;;72.97;27.03;;;11.80;1.00;;;;;;4860620;29;20230;-88
2022/02/23 15:29:39;;;;;;;82.53;47.05;;;11.70;1.00;;;;;;4860861;29;20203;-88
2022/02/23 15:32:05;;;;;;;83.67;49.83;;;11.60;1.00;;;;;;4861078;29;20174;-88
2022/02/23 15:34:34;;;;;;;81.75;54.28;;;11.60;1.00;;;;;;4861507;29;20509;-88
2022/02/23 15:37:00;;;;;;;71.40;26.05;;;11.70;1.00;;;;;;4860599;29;20188;-88
2022/02/23 15:39:26;;;;;;;70.50;16.53;;;11.70;1.00;;;;;;4860981;29;20687;-88
2022/02/23 15:41:52;;;;;;;73.53;27.77;;;11.80;1.00;;;;;;4860624;29;20178;-88
2022/02/23 15:44:36;;;;;;;79.15;45.38;;;11.70;1.00;;;;;;4860756;29;20541;-88
2022/02/23 15:47:02;;;;;;;80.95;50.45;;;11.60;1.00;;;;;;4860649;29;20215;-88
2022/02/23 15:49:28;;;;;;;89.47;59.25;;;11.40;1.00;;;;;;4861524;29;20300;-87
2022/02/23 15:51:57;;;;;;;83.30;54.17;;;11.40;1.00;;;;;;4878720;29;20318;-88
2022/02/23 15:54:23;;;;;;;76.30;39.70;;;11.50;1.00;;;;;;4863975;29;20404;-88
2022/02/23 15:56:52;;;;;;;73.30;25.65;;;11.40;1.00;;;;;;4862950;29;20191;-88
2022/02/23 15:59:25;;;;;;;85.47;55.58;;;11.50;1.00;;;;;;4863917;29;20251;-88
2022/02/23 16:01:54;;;;;;;84.53;54.88;;;11.30;1.00;;;;;;4864165;29;20183;-88
2022/02/23 16:04:20;;;;;;;77.18;44.20;;;11.20;1.00;;;;;;4863961;29;20270;-88
2022/02/23 16:06:53;;;;;;;87.50;55.77;;;11.20;1.00;;;;;;4863739;29;20230;-88
2022/02/23 16:09:51;;;;;;;79.78;48.40;;;11.20;1.00;;;;;;4863784;29;20461;-88
2022/02/23 16:12:23;;;;;;;82.70;50.75;;;11.30;1.00;;;;;;4855329;29;20183;-88
2022/02/23 16:14:52;;;;;;;80.68;48.38;;;11.30;1.00;;;;;;4877945;29;20179;-88
2022/02/23 16:17:18;;;;;;;80.75;50.30;;;11.20;1.00;;;;;;4863642;29;20239;-88
2022/02/23 16:19:44;;;;;;;79.47;43.50;;;11.10;1.00;;;;;;4863570;29;20172;-88
2022/02/23 16:22:13;;;;;;;76.73;40.03;;;11.00;1.00;;;;;;4863663;29;20179;-88
2022/02/23 16:24:40;;;;;;;83.57;49.70;;;11.10;1.00;;;;;;4863801;29;20412;-88
2022/02/23 16:27:08;;;;;;;79.93;47.13;;;11.10;1.60;;;;;;4863357;29;20228;-88
2022/02/23 16:29:36;;;;;;;83.65;48.63;;;11.20;3.80;;;;;;4863275;29;20536;-88
2022/02/23 16:32:02;;;;;;;79.03;44.67;;;11.10;5.20;;;;;;4863373;29;20163;-88
2022/02/23 16:34:31;;;;;;;77.63;28.02;;;11.10;8.50;;;;;;4863309;29;20235;-88
2022/02/23 16:36:57;;;;;;;70.07;20.40;;;11.00;8.50;;;;;;4863204;29;20194;-88
2022/02/23 16:39:23;;;;;;;66.43;8.98;;;10.80;11.30;;;;;;4863418;29;20167;-88
2022/02/23 16:41:52;;;;;;;66.40;9.97;;;10.80;14.90;;;;;;4863706;29;20262;-88
2022/02/23 16:44:18;;;;;;;67.32;11.38;;;10.70;18.50;;;;;;4863222;29;20262;-88
2022/02/23 16:46:44;;;;;;;67.50;10.00;;;10.70;21.70;;;;;;4862895;29;20282;-88
2022/02/23 16:49:13;;;;;;;67.30;8.33;;;10.70;20.70;;;;;;4877336;29;20252;-88
2022/02/23 16:51:39;;;;;;;74.63;10.80;;;10.60;20.60;;;;;;4863342;29;20419;-88
2022/02/23 16:54:05;;;;;;;67.97;11.07;;;10.50;23.60;;;;;;4863144;29;20168;-88
2022/02/23 16:56:31;;;;;;;67.28;8.55;;;10.50;26.20;;;;;;4863212;29;20215;-88
2022/02/23 16:58:57;;;;;;;65.95;7.80;;;10.30;28.30;;;;;;4863274;29;20199;-88
2022/02/23 17:01:23;;;;;;;68.35;9.07;;;10.30;30.00;;;;;;4863174;29;20590;-88
2022/02/23 17:03:49;;;;;;;65.87;6.17;;;10.30;29.40;;;;;;4862945;29;20179;-88
2022/02/23 17:06:15;;;;;;;70.40;5.07;;;10.20;33.60;;;;;;4862910;29;20195;-88
2022/02/23 17:08:41;;;;;;;67.07;4.77;;;10.00;35.60;;;;;;4861646;29;20542;-88
2022/02/23 17:11:07;;;;;;;66.37;4.47;;;10.00;35.20;;;;;;4861560;29;20412;-88
2022/02/23 17:13:34;;;;;;;66.25;4.30;;;10.00;36.00;;;;;;4862837;29;20719;-88
2022/02/23 17:16:00;;;;;;;70.15;5.25;;;10.00;37.30;;;;;;4862689;29;20690;-88
2022/02/23 17:18:29;;;;;;;67.22;4.93;;;10.00;37.40;;;;;;4862874;29;20179;-88
2022/02/23 17:20:57;;;;;;;66.60;4.50;;;9.90;39.60;;;;;;4861408;29;20179;-88
2022/02/23 17:23:27;;;;;;;65.78;4.75;;;9.90;44.60;;;;;;4862502;29;20168;-88
2022/02/23 17:25:56;;;;;;;68.60;4.55;;;9.80;45.00;;;;;;4862505;29;20198;-88
2022/02/23 17:28:25;;;;;;;66.75;5.25;;;9.70;46.10;;;;;;4862403;29;20568;-88
2022/02/23 17:30:54;;;;;;;69.85;4.50;;;9.70;46.50;;;;;;4861463;29;20167;-88